Time;durP1;ratioP1;P1;durP2;ratioP2;P2;SDS_P1;SDS_P2;PMS_P1;PMS_P2;Temp;Humidity;BMP_temperature;BMP_pressure;BME280_temperature;BME280_humidity;BME280_pressure;Samples;Min_cycle;Max_cycle;Signal;HPM_P1;HPM_P2
2024/01/18 00:01:13;;;;;;;;;;;-1.80;99.90;;;;;;5155344;27;20440;-72
2024/01/18 00:03:39;;;;;;;1.50;1.40;;;-1.90;99.90;;;;;;5155570;27;19926;-72
2024/01/18 00:06:05;;;;;;;1.52;1.42;;;-1.90;99.90;;;;;;5155553;27;20050;-72
2024/01/18 00:08:31;;;;;;;1.60;1.50;;;-1.90;99.90;;;;;;5155200;27;20482;-72
2024/01/18 00:10:57;;;;;;;1.70;1.60;;;-1.90;99.90;;;;;;5155189;27;20083;-72
2024/01/18 00:13:22;;;;;;;1.60;1.50;;;-1.70;99.90;;;;;;5155339;27;20043;-72
2024/01/18 00:15:48;;;;;;;1.70;1.60;;;-1.90;99.90;;;;;;5155517;27;20165;-72
2024/01/18 00:18:13;;;;;;;1.60;1.50;;;-1.90;99.90;;;;;;5155403;27;20129;-72
2024/01/18 00:20:39;;;;;;;1.70;1.60;;;-1.90;99.90;;;;;;5155378;27;20060;-72
2024/01/18 00:23:05;;;;;;;1.60;1.50;;;-0.60;99.90;;;;;;5155321;27;20038;-72
2024/01/18 00:25:30;;;;;;;1.60;1.50;;;-2.00;99.90;;;;;;5155319;27;20042;-72
2024/01/18 00:27:56;;;;;;;1.50;1.40;;;-1.90;99.90;;;;;;5154961;27;20043;-72
2024/01/18 00:30:21;;;;;;;1.63;1.52;;;-2.00;99.90;;;;;;5155017;27;20043;-72
2024/01/18 00:32:47;;;;;;;1.70;1.60;;;-2.00;99.90;;;;;;5155186;27;20038;-72
2024/01/18 00:35:13;;;;;;;1.60;1.50;;;-2.00;99.90;;;;;;5155151;27;20081;-71
2024/01/18 00:37:38;;;;;;;1.60;1.50;;;-2.00;99.90;;;;;;5155069;27;20461;-72
2024/01/18 00:40:04;;;;;;;1.60;1.50;;;-2.00;99.90;;;;;;5136774;27;20035;-72
2024/01/18 00:42:30;;;;;;;1.70;1.60;;;-2.00;99.90;;;;;;5136652;27;20046;-72
2024/01/18 00:44:55;;;;;;;1.60;1.50;;;-2.10;99.90;;;;;;5155087;27;20466;-73
2024/01/18 00:47:21;;;;;;;1.60;1.50;;;-2.10;99.90;;;;;;5154788;27;20034;-72
2024/01/18 00:49:47;;;;;;;1.60;1.50;;;-2.10;99.90;;;;;;5155160;27;20059;-73
2024/01/18 00:52:12;;;;;;;1.70;1.60;;;-2.10;99.90;;;;;;5155236;27;20046;-73
2024/01/18 00:54:38;;;;;;;1.70;1.60;;;-2.10;99.90;;;;;;5154884;27;20385;-72
2024/01/18 00:57:03;;;;;;;1.65;1.55;;;-1.60;99.90;;;;;;5154836;27;20035;-73
2024/01/18 00:59:29;;;;;;;1.60;1.50;;;-2.20;99.90;;;;;;5154946;27;20486;-72
2024/01/18 01:01:54;;;;;;;1.83;1.73;;;-2.20;99.90;;;;;;5154937;27;20050;-72
2024/01/18 01:04:20;;;;;;;1.60;1.50;;;-2.30;99.90;;;;;;5154958;27;20390;-72
2024/01/18 01:06:46;;;;;;;1.60;1.50;;;-2.00;99.90;;;;;;5154603;27;20043;-73
2024/01/18 01:09:11;;;;;;;1.70;1.60;;;-2.30;99.90;;;;;;5155061;27;20047;-73
2024/01/18 01:11:37;;;;;;;1.70;1.60;;;-2.30;99.90;;;;;;5154815;27;20042;-73
2024/01/18 01:14:05;;;;;;;1.60;1.50;;;-2.30;99.90;;;;;;5158045;27;20545;-72
2024/01/18 01:16:31;;;;;;;1.80;1.70;;;-2.30;99.90;;;;;;5158998;27;20130;-73
2024/01/18 01:18:56;;;;;;;1.60;1.50;;;-2.40;99.90;;;;;;5158666;27;20393;-73
2024/01/18 01:21:22;;;;;;;1.70;1.60;;;-2.40;99.90;;;;;;5158624;27;20034;-73
2024/01/18 01:23:48;;;;;;;1.80;1.70;;;-2.40;99.90;;;;;;5158530;27;20534;-74
2024/01/18 01:26:15;;;;;;;1.80;1.70;;;-2.40;99.90;;;;;;5158097;27;20047;-72
2024/01/18 01:28:41;;;;;;;;;;;-2.40;99.90;;;;;;5158851;27;20058;-72
2024/01/18 01:31:07;;;;;;;1.60;1.50;;;-2.40;99.90;;;;;;5158416;27;19919;-72
2024/01/18 01:33:32;;;;;;;2.85;2.28;;;-1.70;99.90;;;;;;5158346;27;20038;-72
2024/01/18 01:35:58;;;;;;;1.67;1.58;;;-2.50;99.90;;;;;;5139724;27;20046;-72
2024/01/18 01:38:24;;;;;;;1.70;1.60;;;-2.60;99.90;;;;;;5140386;27;20057;-72
2024/01/18 01:40:49;;;;;;;1.70;1.60;;;-2.50;99.90;;;;;;5158151;27;20129;-72
2024/01/18 01:43:16;;;;;;;1.93;1.70;;;-2.50;99.90;;;;;;5158147;27;20550;-72
2024/01/18 01:45:42;;;;;;;1.60;1.50;;;-2.50;99.90;;;;;;5158390;27;20091;-72
2024/01/18 01:48:08;;;;;;;1.75;1.65;;;-2.50;99.90;;;;;;5158018;27;20042;-73
2024/01/18 01:50:35;;;;;;;1.70;1.60;;;-2.60;99.90;;;;;;5157982;27;20470;-72
2024/01/18 01:53:01;;;;;;;1.90;1.80;;;-2.30;99.90;;;;;;5157935;27;20090;-72
2024/01/18 01:55:27;;;;;;;1.73;1.63;;;-2.60;99.90;;;;;;5157851;27;20047;-73
2024/01/18 01:57:53;;;;;;;1.80;1.70;;;-2.60;99.90;;;;;;5157661;27;20043;-72
2024/01/18 02:00:19;;;;;;;1.80;1.70;;;-2.70;99.90;;;;;;5158007;27;20050;-73
2024/01/18 02:02:45;;;;;;;2.00;1.90;;;-2.70;99.90;;;;;;5157437;27;20034;-73
2024/01/18 02:05:12;;;;;;;1.80;1.70;;;-2.70;99.90;;;;;;5157774;27;20078;-72
2024/01/18 02:07:38;;;;;;;1.75;1.65;;;-2.50;99.90;;;;;;5157737;27;20043;-72
2024/01/18 02:10:07;;;;;;;1.70;1.60;;;-2.30;99.90;;;;;;5157536;27;20045;-72
2024/01/18 02:12:33;;;;;;;1.70;1.60;;;-2.70;99.90;;;;;;5157561;27;20117;-72
2024/01/18 02:14:59;;;;;;;1.65;1.55;;;-2.70;99.90;;;;;;5157472;27;20486;-72
2024/01/18 02:17:25;;;;;;;1.63;1.52;;;-2.70;99.90;;;;;;5157391;27;20126;-72
2024/01/18 02:19:50;;;;;;;1.70;1.60;;;-2.70;99.90;;;;;;5157287;27;20041;-72
2024/01/18 02:22:17;;;;;;;1.70;1.60;;;-2.70;99.90;;;;;;5157402;27;20038;-72
2024/01/18 02:24:51;;;;;;;1.60;1.50;;;-2.70;99.90;;;;;;5156511;27;20049;-72
2024/01/18 02:27:17;;;;;;;1.70;1.60;;;-2.80;99.90;;;;;;5157274;27;20082;-72
2024/01/18 02:29:43;;;;;;;1.80;1.70;;;-2.80;99.90;;;;;;5157226;27;20078;-72
2024/01/18 02:32:09;;;;;;;1.80;1.70;;;-3.10;99.90;;;;;;5157016;27;20042;-72
2024/01/18 02:34:39;;;;;;;1.80;1.70;;;-2.80;99.90;;;;;;5157364;27;20037;-72
2024/01/18 02:37:08;;;;;;;1.80;1.70;;;-2.80;99.90;;;;;;5138495;27;20130;-72
2024/01/18 02:39:34;;;;;;;1.80;1.70;;;-2.80;99.90;;;;;;5156728;27;20402;-72
2024/01/18 02:42:01;;;;;;;1.80;1.70;;;-2.80;99.90;;;;;;5157440;27;20377;-72
2024/01/18 02:44:27;;;;;;;1.70;1.60;;;-2.90;99.90;;;;;;5157366;27;20039;-72
2024/01/18 02:46:53;;;;;;;1.70;1.60;;;-2.90;99.90;;;;;;5156819;27;20046;-72
2024/01/18 02:49:19;;;;;;;1.80;1.70;;;-2.90;99.90;;;;;;5156518;27;20462;-72
2024/01/18 02:51:45;;;;;;;1.77;1.67;;;-2.90;99.90;;;;;;5156527;27;20141;-72
2024/01/18 02:54:10;;;;;;;1.80;1.70;;;-2.90;99.90;;;;;;5156612;27;20371;-73
2024/01/18 02:56:37;;;;;;;1.80;1.70;;;-2.90;99.90;;;;;;5156600;27;20038;-72
2024/01/18 02:59:03;;;;;;;;;;;-2.90;99.90;;;;;;5156964;27;20046;-72
2024/01/18 03:01:29;;;;;;;1.60;1.50;;;-2.90;99.90;;;;;;5156987;27;20055;-72
2024/01/18 03:03:54;;;;;;;1.80;1.70;;;-2.90;99.90;;;;;;5156576;27;20500;-72
2024/01/18 03:06:20;;;;;;;1.70;1.60;;;-3.00;99.90;;;;;;5156213;27;20501;-72
2024/01/18 03:08:46;;;;;;;1.80;1.70;;;-3.00;99.90;;;;;;5156448;27;20113;-73
2024/01/18 03:11:11;;;;;;;1.90;1.80;;;-3.00;99.90;;;;;;5156633;27;20363;-72
2024/01/18 03:13:37;;;;;;;1.70;1.60;;;-3.10;99.90;;;;;;5156699;27;20122;-72
2024/01/18 03:16:03;;;;;;;1.77;1.67;;;-3.10;99.90;;;;;;5156217;27;20046;-72
2024/01/18 03:18:28;;;;;;;1.88;1.77;;;-3.10;99.90;;;;;;5156163;27;20035;-72
2024/01/18 03:20:55;;;;;;;1.80;1.70;;;-3.10;99.90;;;;;;5156232;27;20042;-72
2024/01/18 03:23:20;;;;;;;1.70;1.60;;;-3.00;99.90;;;;;;5156085;27;20039;-72
2024/01/18 03:25:46;;;;;;;2.13;2.03;;;-3.10;99.90;;;;;;5156237;27;20043;-72
2024/01/18 03:28:11;;;;;;;1.80;1.70;;;-3.70;99.90;;;;;;5156113;27;20095;-72
2024/01/18 03:30:37;;;;;;;1.70;1.60;;;-3.10;99.90;;;;;;5155900;27;20091;-73
2024/01/18 03:33:03;;;;;;;1.90;1.80;;;-3.10;99.90;;;;;;5155837;27;20423;-72
2024/01/18 03:35:28;;;;;;;1.80;1.70;;;-3.10;99.90;;;;;;5155550;27;20081;-72
2024/01/18 03:37:54;;;;;;;1.80;1.70;;;-3.20;99.90;;;;;;5156124;27;20038;-72
2024/01/18 03:40:19;;;;;;;1.80;1.70;;;-3.20;99.90;;;;;;5155586;27;20050;-72
2024/01/18 03:42:45;;;;;;;1.88;1.77;;;-3.10;99.90;;;;;;5155792;27;20492;-72
2024/01/18 03:45:11;;;;;;;1.80;1.70;;;-3.20;99.90;;;;;;5156130;27;20169;-72
2024/01/18 03:47:37;;;;;;;1.70;1.60;;;-3.10;99.90;;;;;;5155841;27;20482;-72
2024/01/18 03:50:03;;;;;;;1.80;1.70;;;-3.10;99.90;;;;;;5155534;27;20137;-72
2024/01/18 03:52:30;;;;;;;1.80;1.70;;;-3.10;99.90;;;;;;5155596;27;20046;-72
2024/01/18 03:54:55;;;;;;;1.70;1.60;;;-3.20;99.90;;;;;;5155220;27;20046;-72
2024/01/18 03:57:21;;;;;;;1.80;1.70;;;-3.20;99.90;;;;;;5155461;27;20065;-72
2024/01/18 03:59:47;;;;;;;1.70;1.60;;;-3.30;99.90;;;;;;5155552;27;20039;-72
2024/01/18 04:02:13;;;;;;;1.73;1.63;;;-3.30;99.90;;;;;;5155461;27;20106;-72
2024/01/18 04:04:39;;;;;;;1.70;1.60;;;-3.20;99.90;;;;;;5155424;27;20045;-72
2024/01/18 04:07:04;;;;;;;1.70;1.60;;;-3.30;99.90;;;;;;5155309;27;20043;-72
2024/01/18 04:09:30;;;;;;;1.70;1.60;;;-3.30;99.90;;;;;;5155239;27;20461;-72
2024/01/18 04:11:56;;;;;;;1.60;1.50;;;-3.30;99.90;;;;;;5155427;27;20055;-72
2024/01/18 04:14:21;;;;;;;1.70;1.60;;;-3.30;99.90;;;;;;5155696;27;20398;-72
2024/01/18 04:16:47;;;;;;;1.70;1.60;;;-3.30;99.90;;;;;;5155243;27;20483;-72
2024/01/18 04:19:13;;;;;;;1.80;1.70;;;-3.80;99.90;;;;;;5155617;27;20114;-72
2024/01/18 04:21:38;;;;;;;1.70;1.60;;;-3.30;99.90;;;;;;5155343;27;20039;-71
2024/01/18 04:24:05;;;;;;;1.60;1.50;;;-3.30;99.90;;;;;;5155198;27;20061;-72
2024/01/18 04:26:33;;;;;;;1.83;1.73;;;-3.30;99.90;;;;;;5155205;27;20351;-72
2024/01/18 04:29:00;;;;;;;1.70;1.60;;;-2.00;99.90;;;;;;5155105;27;20042;-72
2024/01/18 04:31:25;;;;;;;1.70;1.60;;;-3.30;99.90;;;;;;5155167;27;20099;-72
2024/01/18 04:33:51;;;;;;;1.60;1.50;;;-3.00;99.90;;;;;;5155171;27;20449;-72
2024/01/18 04:36:17;;;;;;;1.70;1.60;;;-3.30;99.90;;;;;;5155057;27;20054;-72
2024/01/18 04:38:43;;;;;;;1.80;1.70;;;;;;;;;;5154779;27;20496;-72
2024/01/18 04:41:08;;;;;;;1.73;1.63;;;-3.40;99.90;;;;;;5155023;27;20130;-72
2024/01/18 04:43:34;;;;;;;1.60;1.50;;;-2.00;99.90;;;;;;5155376;27;20742;-72
2024/01/18 04:46:01;;;;;;;1.60;1.50;;;-2.80;99.90;;;;;;5155260;27;20095;-71
2024/01/18 04:48:27;;;;;;;5.88;5.43;;;-3.50;99.90;;;;;;5157977;27;20055;-72
2024/01/18 04:50:52;;;;;;;1.70;1.60;;;-3.50;99.90;;;;;;5159484;27;20458;-71
2024/01/18 04:53:18;;;;;;;1.80;1.70;;;-2.50;99.90;;;;;;5158953;27;20038;-72
2024/01/18 04:55:44;;;;;;;1.80;1.70;;;-3.50;99.90;;;;;;5140520;27;20133;-72
2024/01/18 04:58:10;;;;;;;1.80;1.70;;;-3.50;99.90;;;;;;5159411;27;20061;-72
2024/01/18 05:00:35;;;;;;;1.90;1.80;;;-3.50;99.90;;;;;;5140725;27;20054;-72
2024/01/18 05:03:01;;;;;;;1.80;1.70;;;-3.10;99.90;;;;;;5159041;27;20035;-71
2024/01/18 05:05:26;;;;;;;1.80;1.70;;;-3.50;99.90;;;;;;5158596;27;20043;-72
2024/01/18 05:07:52;;;;;;;2.10;2.00;;;-3.50;99.90;;;;;;5158715;27;20078;-72
2024/01/18 05:10:18;;;;;;;1.80;1.70;;;-3.40;99.90;;;;;;5158731;27;20074;-72
2024/01/18 05:12:45;;;;;;;1.80;1.70;;;-3.40;99.90;;;;;;5158669;27;20512;-72
2024/01/18 05:15:11;;;;;;;1.80;1.70;;;-3.40;99.90;;;;;;5158655;27;20047;-72
2024/01/18 05:17:39;;;;;;;1.80;1.70;;;-3.40;99.90;;;;;;5158687;27;20113;-71
2024/01/18 05:20:06;;;;;;;1.50;1.40;;;-3.40;99.90;;;;;;5158586;27;20102;-72
2024/01/18 05:22:33;;;;;;;1.70;1.60;;;-3.30;99.90;;;;;;5158487;27;20042;-72
2024/01/18 05:24:59;;;;;;;1.75;1.65;;;-3.30;99.90;;;;;;5158446;27;20439;-72
2024/01/18 05:27:28;;;;;;;1.80;1.70;;;-1.40;99.90;;;;;;5158343;27;20051;-72
2024/01/18 05:29:54;;;;;;;1.70;1.60;;;-3.50;99.90;;;;;;5158305;27;20054;-71
2024/01/18 05:32:20;;;;;;;1.87;1.77;;;-3.20;99.90;;;;;;5158298;27;20034;-72
2024/01/18 05:34:47;;;;;;;1.80;1.70;;;-2.00;99.90;;;;;;5158274;27;20066;-72
2024/01/18 05:37:13;;;;;;;1.80;1.70;;;-3.10;99.90;;;;;;5158054;27;20042;-71
2024/01/18 05:39:38;;;;;;;1.60;1.50;;;-3.10;99.90;;;;;;5158067;27;20171;-72
2024/01/18 05:42:04;;;;;;;1.60;1.50;;;-2.10;99.90;;;;;;5158158;27;20039;-72
2024/01/18 05:44:30;;;;;;;1.80;1.70;;;-3.10;99.90;;;;;;5158061;27;20111;-71
2024/01/18 05:46:55;;;;;;;1.80;1.70;;;-3.10;99.90;;;;;;5157839;27;20046;-72
2024/01/18 05:49:21;;;;;;;1.80;1.70;;;-3.10;99.90;;;;;;5158454;27;20077;-72
2024/01/18 05:51:47;;;;;;;1.70;1.60;;;-3.10;99.90;;;;;;5157667;27;20114;-72
2024/01/18 05:54:13;;;;;;;1.75;1.65;;;-3.10;99.90;;;;;;5157882;27;20268;-71
2024/01/18 05:56:39;;;;;;;1.80;1.70;;;-2.80;99.90;;;;;;5157994;27;20435;-72
2024/01/18 05:59:04;;;;;;;1.50;1.40;;;-3.20;99.90;;;;;;5156428;27;20043;-72
2024/01/18 06:01:31;;;;;;;1.60;1.50;;;-3.10;99.90;;;;;;5158100;27;20056;-72
2024/01/18 06:03:57;;;;;;;1.50;1.40;;;-3.40;99.90;;;;;;5157792;27;20046;-71
2024/01/18 06:06:23;;;;;;;1.70;1.60;;;-3.20;99.90;;;;;;5157567;27;20117;-72
2024/01/18 06:08:49;;;;;;;1.90;1.80;;;-3.20;99.90;;;;;;5157594;27;20034;-72
2024/01/18 06:11:17;;;;;;;1.80;1.70;;;-2.90;99.90;;;;;;5158089;27;20505;-71
2024/01/18 06:13:42;;;;;;;1.70;1.60;;;-3.20;99.90;;;;;;5157805;27;20074;-72
2024/01/18 06:16:11;;;;;;;1.50;1.40;;;-3.20;99.90;;;;;;5157298;27;20489;-71
2024/01/18 06:18:37;;;;;;;1.70;1.60;;;-3.20;99.90;;;;;;5157371;27;20038;-72
2024/01/18 06:21:09;;;;;;;1.60;1.50;;;-3.30;99.90;;;;;;5157347;27;20394;-72
2024/01/18 06:23:36;;;;;;;1.80;1.70;;;-1.70;99.90;;;;;;5157298;27;20045;-72
2024/01/18 06:26:02;;;;;;;1.75;1.65;;;-3.30;99.90;;;;;;5157303;27;20129;-76
2024/01/18 06:28:27;;;;;;;1.80;1.70;;;-2.00;99.90;;;;;;5157246;27;20046;-74
2024/01/18 06:30:53;;;;;;;1.60;1.50;;;-3.30;99.90;;;;;;5157167;27;20045;-74
2024/01/18 06:33:19;;;;;;;1.60;1.50;;;-3.30;99.90;;;;;;5157353;27;20070;-72
2024/01/18 06:35:45;;;;;;;1.70;1.60;;;-3.30;99.90;;;;;;5157011;27;20409;-72
2024/01/18 06:38:13;;;;;;;1.50;1.40;;;-1.90;99.90;;;;;;5138455;27;20035;-73
2024/01/18 06:40:40;;;;;;;1.70;1.60;;;-3.20;99.90;;;;;;5157249;27;20043;-72
2024/01/18 06:43:06;;;;;;;1.65;1.55;;;-3.30;99.90;;;;;;5138675;27;20053;-72
2024/01/18 06:45:31;;;;;;;1.80;1.70;;;-3.20;99.90;;;;;;5156946;27;20117;-71
2024/01/18 06:47:57;;;;;;;1.80;1.70;;;-3.30;99.90;;;;;;5156992;27;20038;-71
2024/01/18 06:50:23;;;;;;;1.60;1.50;;;-2.60;99.90;;;;;;5156781;27;20134;-71
2024/01/18 06:52:48;;;;;;;1.67;1.58;;;-3.20;99.90;;;;;;5156813;27;20054;-71
2024/01/18 06:55:14;;;;;;;1.80;1.70;;;-3.20;99.90;;;;;;5156736;27;20039;-71
2024/01/18 06:57:40;;;;;;;1.70;1.60;;;-3.20;99.90;;;;;;5156598;27;20502;-71
2024/01/18 07:00:07;;;;;;;1.70;1.60;;;-3.20;99.90;;;;;;5156608;27;20043;-72
2024/01/18 07:02:33;;;;;;;1.63;1.52;;;-3.20;99.90;;;;;;5156438;27;20070;-72
2024/01/18 07:04:59;;;;;;;1.80;1.70;;;-3.20;99.90;;;;;;5156407;27;20130;-72
2024/01/18 07:07:25;;;;;;;1.70;1.60;;;-3.20;99.90;;;;;;5156487;27;20046;-71
2024/01/18 07:09:51;;;;;;;1.60;1.50;;;-3.20;99.90;;;;;;5156164;27;20363;-71
2024/01/18 07:12:16;;;;;;;1.77;1.67;;;-3.20;99.90;;;;;;5156000;27;20035;-71
2024/01/18 07:14:42;;;;;;;1.70;1.60;;;-1.70;99.90;;;;;;5137815;27;20039;-71
2024/01/18 07:17:10;;;;;;;1.70;1.60;;;-2.70;99.90;;;;;;5156052;27;20542;-71
2024/01/18 07:19:36;;;;;;;1.63;1.52;;;-3.20;99.90;;;;;;5156135;27;20125;-72
2024/01/18 07:22:01;;;;;;;1.60;1.50;;;-3.20;99.90;;;;;;5156203;27;20038;-76
2024/01/18 07:24:30;;;;;;;1.70;1.60;;;-3.20;99.90;;;;;;5156103;27;20129;-72
2024/01/18 07:26:57;;;;;;;1.67;1.58;;;-3.20;99.90;;;;;;5156395;27;20053;-76
2024/01/18 07:29:22;;;;;;;1.70;1.60;;;-3.00;99.90;;;;;;5155997;27;20117;-71
2024/01/18 07:31:48;;;;;;;1.65;1.55;;;-3.20;99.90;;;;;;5155726;27;20035;-73
2024/01/18 07:34:15;;;;;;;1.60;1.50;;;-3.20;99.90;;;;;;5155824;27;20486;-72
2024/01/18 07:36:41;;;;;;;1.70;1.60;;;-3.40;99.90;;;;;;5155915;27;20047;-71
2024/01/18 07:39:06;;;;;;;1.70;1.60;;;-3.10;99.90;;;;;;5155523;27;20061;-72
2024/01/18 07:41:32;;;;;;;1.67;1.58;;;-3.10;99.90;;;;;;5155716;27;20038;-73
2024/01/18 07:43:57;;;;;;;1.70;1.60;;;-3.10;99.90;;;;;;5155842;27;20439;-73
2024/01/18 07:46:23;;;;;;;1.63;1.53;;;-3.10;99.90;;;;;;5155728;27;20545;-72
2024/01/18 07:48:51;;;;;;;1.70;1.60;;;-3.10;99.90;;;;;;5155261;27;20061;-73
2024/01/18 07:51:17;;;;;;;1.60;1.50;;;-2.60;99.90;;;;;;5147501;27;20055;-72
2024/01/18 07:53:42;;;;;;;1.70;1.60;;;-3.00;99.90;;;;;;5139127;27;20039;-73
2024/01/18 07:56:08;;;;;;;1.70;1.60;;;-3.00;99.90;;;;;;5134718;27;20478;-74
2024/01/18 07:58:33;;;;;;;1.63;1.52;;;-2.40;99.90;;;;;;5134399;27;20051;-74
2024/01/18 08:00:59;;;;;;;1.80;1.70;;;-3.10;99.90;;;;;;5134399;27;20040;-74
2024/01/18 08:03:27;;;;;;;1.90;1.80;;;-3.00;99.90;;;;;;5134468;27;20043;-73
2024/01/18 08:05:52;;;;;;;1.80;1.70;;;-3.00;99.90;;;;;;5134407;27;20043;-72
2024/01/18 08:08:23;;;;;;;1.80;1.70;;;-3.00;99.90;;;;;;5134223;27;20047;-72
2024/01/18 08:10:49;;;;;;;1.70;1.60;;;-2.90;99.90;;;;;;5133363;27;20483;-70
2024/01/18 08:13:15;;;;;;;1.80;1.70;;;-3.40;99.90;;;;;;5132637;27;20087;-72
2024/01/18 08:15:41;;;;;;;1.50;1.40;;;-3.00;99.90;;;;;;5133977;27;20079;-71
2024/01/18 08:18:07;;;;;;;1.70;1.60;;;-3.00;99.90;;;;;;5133144;27;20039;-73
2024/01/18 08:20:32;;;;;;;1.90;1.80;;;-3.00;99.90;;;;;;5133864;27;20046;-73
2024/01/18 08:22:58;;;;;;;1.70;1.60;;;-3.60;99.90;;;;;;5133437;27;20114;-71
2024/01/18 08:25:24;;;;;;;1.70;1.60;;;-3.00;99.90;;;;;;5134366;28;20043;-73
2024/01/18 08:27:53;;;;;;;1.70;1.60;;;-3.00;99.90;;;;;;5134172;28;20039;-72
2024/01/18 08:30:19;;;;;;;1.60;1.50;;;-3.00;99.90;;;;;;5134173;28;20055;-71
2024/01/18 08:32:45;;;;;;;1.70;1.60;;;-3.00;99.90;;;;;;5133777;28;20054;-70
2024/01/18 08:35:11;;;;;;;1.60;1.50;;;-2.40;99.90;;;;;;5134068;28;20048;-72
2024/01/18 08:37:37;;;;;;;1.60;1.50;;;-3.00;99.90;;;;;;5133667;28;20039;-71
2024/01/18 08:40:04;;;;;;;1.70;1.60;;;-2.90;99.90;;;;;;5134195;28;20119;-73
2024/01/18 08:42:30;;;;;;;1.70;1.60;;;-2.90;99.90;;;;;;5134090;28;20047;-73
2024/01/18 08:44:56;;;;;;;1.60;1.50;;;-2.90;99.90;;;;;;5134245;28;20501;-71
2024/01/18 08:47:26;;;;;;;1.60;1.50;;;-2.90;99.90;;;;;;5133961;28;20031;-73
2024/01/18 08:49:52;;;;;;;1.60;1.50;;;-2.80;99.90;;;;;;5133995;27;20046;-71
2024/01/18 08:52:17;;;;;;;1.60;1.50;;;-2.80;99.90;;;;;;5134026;28;20122;-71
2024/01/18 08:54:43;;;;;;;1.60;1.50;;;-2.70;99.90;;;;;;5134004;28;20428;-73
2024/01/18 08:57:09;;;;;;;1.60;1.50;;;-2.70;99.90;;;;;;5134191;28;20046;-73
2024/01/18 08:59:35;;;;;;;1.50;1.40;;;-2.70;99.90;;;;;;5134007;28;20047;-73
2024/01/18 09:02:00;;;;;;;1.60;1.50;;;-2.60;99.90;;;;;;5133598;28;20126;-71
2024/01/18 09:04:26;;;;;;;1.60;1.50;;;-2.50;99.90;;;;;;5133906;28;20086;-71
2024/01/18 09:06:52;;;;;;;1.60;1.50;;;-2.50;99.90;;;;;;5133787;28;20042;-73
2024/01/18 09:09:17;;;;;;;1.70;1.60;;;-2.40;99.90;;;;;;5133894;28;20043;-74
2024/01/18 09:11:43;;;;;;;1.50;1.40;;;-2.40;99.90;;;;;;5133618;28;20517;-71
2024/01/18 09:14:08;;;;;;;1.60;1.50;;;-1.70;99.90;;;;;;5133846;28;20050;-74
2024/01/18 09:16:34;;;;;;;1.60;1.50;;;-2.20;99.90;;;;;;5115569;28;20104;-73
2024/01/18 09:19:00;;;;;;;1.70;1.60;;;-2.10;99.90;;;;;;5133790;28;20049;-73
2024/01/18 09:21:26;;;;;;;1.60;1.50;;;-2.00;99.90;;;;;;5133621;28;20399;-73
2024/01/18 09:23:52;;;;;;;1.67;1.58;;;-0.90;99.90;;;;;;5133784;28;20118;-70
2024/01/18 09:26:18;;;;;;;1.73;1.63;;;-1.90;99.90;;;;;;5133549;28;20139;-72
2024/01/18 09:28:44;;;;;;;1.60;1.50;;;-1.80;99.90;;;;;;5133825;28;20087;-71
2024/01/18 09:31:10;;;;;;;1.58;1.48;;;-1.70;99.90;;;;;;5133850;28;20043;-73
2024/01/18 09:33:37;;;;;;;1.60;1.50;;;-1.60;99.90;;;;;;5134957;27;20087;-71
2024/01/18 09:36:04;;;;;;;1.60;1.50;;;-0.40;99.90;;;;;;5137069;27;20043;-72
2024/01/18 09:38:30;;;;;;;;;;;-1.50;99.90;;;;;;5137675;27;20047;-72
2024/01/18 09:41:02;;;;;;;1.50;1.40;;;-1.40;99.90;;;;;;5137244;27;19919;-72
2024/01/18 09:43:34;;;;;;;1.50;1.40;;;-1.30;99.90;;;;;;5137250;27;20043;-73
2024/01/18 09:45:59;;;;;;;1.50;1.40;;;-1.00;99.90;;;;;;5137057;27;20360;-72
2024/01/18 09:48:26;;;;;;;1.58;1.48;;;-1.20;99.90;;;;;;5136869;27;20107;-72
2024/01/18 09:50:52;;;;;;;1.55;1.45;;;-1.10;99.90;;;;;;5136559;27;20116;-76
2024/01/18 09:53:17;;;;;;;1.50;1.40;;;-1.00;99.90;;;;;;5137312;27;20078;-72
2024/01/18 09:55:45;;;;;;;1.55;1.45;;;-1.00;99.90;;;;;;5137220;27;20304;-71
2024/01/18 09:58:12;;;;;;;1.50;1.40;;;-0.90;99.90;;;;;;5136938;27;20047;-70
2024/01/18 10:00:43;;;;;;;1.60;1.50;;;-0.80;99.90;;;;;;5136879;27;20417;-70
2024/01/18 10:03:09;;;;;;;1.42;1.33;;;-0.80;99.90;;;;;;5136730;27;20103;-71
2024/01/18 10:05:34;;;;;;;1.55;1.45;;;-0.70;99.90;;;;;;5136749;27;20051;-71
2024/01/18 10:08:00;;;;;;;1.60;1.50;;;-0.70;99.90;;;;;;5136661;27;20047;-70
2024/01/18 10:10:25;;;;;;;1.52;1.42;;;-0.60;99.90;;;;;;5136798;27;20555;-73
2024/01/18 10:12:52;;;;;;;;;;;-0.50;99.90;;;;;;5137193;27;20054;-72
2024/01/18 10:15:35;;;;;;;1.40;1.30;;;-0.50;99.90;;;;;;5136426;27;19920;-73
2024/01/18 10:18:04;;;;;;;1.50;1.40;;;-0.40;99.90;;;;;;5136140;27;20086;-72
2024/01/18 10:20:30;;;;;;;1.50;1.40;;;0.00;99.90;;;;;;5136070;27;20567;-72
2024/01/18 10:23:00;;;;;;;1.50;1.40;;;-0.30;99.90;;;;;;5136382;27;20043;-72
2024/01/18 10:25:26;;;;;;;1.50;1.40;;;-0.30;99.90;;;;;;5136381;27;20047;-72
2024/01/18 10:27:53;;;;;;;1.50;1.40;;;-0.30;99.90;;;;;;5136165;27;20035;-73
2024/01/18 10:30:19;;;;;;;1.45;1.35;;;-0.20;99.90;;;;;;5136529;27;20047;-72
2024/01/18 10:32:45;;;;;;;1.50;1.40;;;-0.10;99.90;;;;;;5136258;27;20067;-72
2024/01/18 10:35:25;;;;;;;1.50;1.40;;;0.00;99.90;;;;;;5136289;27;20039;-72
2024/01/18 10:38:05;;;;;;;1.40;1.30;;;0.00;99.90;;;;;;5136056;27;20045;-72
2024/01/18 10:40:33;;;;;;;1.50;1.40;;;0.10;99.90;;;;;;5135997;27;20091;-73
2024/01/18 10:42:59;;;;;;;1.35;1.25;;;0.50;99.90;;;;;;5136065;27;20035;-75
2024/01/18 10:45:28;;;;;;;1.50;1.40;;;0.10;99.90;;;;;;5135333;27;20058;-75
2024/01/18 10:47:55;;;;;;;1.48;1.38;;;0.20;99.90;;;;;;5135807;27;20051;-71
2024/01/18 10:50:21;;;;;;;;;;;0.20;99.90;;;;;;5118030;27;20047;-72
2024/01/18 10:52:48;;;;;;;1.30;1.20;;;0.20;99.90;;;;;;5135713;27;20064;-75
2024/01/18 10:55:13;;;;;;;1.40;1.30;;;0.30;99.90;;;;;;5144336;27;20065;-73
2024/01/18 10:57:40;;;;;;;1.40;1.30;;;0.30;99.90;;;;;;5136042;27;20039;-74
2024/01/18 11:00:07;;;;;;;1.40;1.30;;;0.50;99.90;;;;;;5135488;27;20047;-78
2024/01/18 11:02:39;;;;;;;1.60;1.50;;;0.40;99.90;;;;;;5135656;27;20401;-72
2024/01/18 11:05:09;;;;;;;1.40;1.30;;;0.40;99.90;;;;;;5135432;27;20051;-72
2024/01/18 11:07:37;;;;;;;1.40;1.30;;;0.50;99.90;;;;;;5135434;27;20047;-71
2024/01/18 11:10:06;;;;;;;1.50;1.40;;;0.50;99.90;;;;;;5135229;27;20082;-71
2024/01/18 11:12:32;;;;;;;1.40;1.30;;;0.60;99.90;;;;;;5135058;27;20551;-72
2024/01/18 11:14:59;;;;;;;1.40;1.30;;;0.70;99.90;;;;;;5135476;27;20039;-74
2024/01/18 11:17:24;;;;;;;1.33;1.23;;;0.70;99.90;;;;;;5135151;27;20383;-72
2024/01/18 11:19:50;;;;;;;1.25;1.15;;;0.80;99.90;;;;;;5135021;27;20364;-71
2024/01/18 11:22:24;;;;;;;1.40;1.30;;;0.80;99.90;;;;;;5134815;27;20039;-70
2024/01/18 11:24:50;;;;;;;1.40;1.30;;;0.90;99.90;;;;;;5135247;27;20072;-73
2024/01/18 11:27:23;;;;;;;1.50;1.40;;;1.00;99.90;;;;;;5117170;27;20043;-72
2024/01/18 11:29:49;;;;;;;1.48;1.38;;;1.10;99.90;;;;;;5134723;27;20043;-76
2024/01/18 11:32:18;;;;;;;1.60;1.50;;;1.20;99.90;;;;;;5135085;27;20099;-73
2024/01/18 11:34:47;;;;;;;1.40;1.30;;;1.30;99.90;;;;;;5135004;27;20078;-73
2024/01/18 11:37:17;;;;;;;1.50;1.40;;;1.40;99.90;;;;;;5135080;27;20099;-77
2024/01/18 11:39:51;;;;;;;1.33;1.23;;;1.50;99.90;;;;;;5134839;27;20050;-79
2024/01/18 11:42:22;;;;;;;1.40;1.30;;;1.60;99.90;;;;;;5116894;27;20039;-75
2024/01/18 11:44:49;;;;;;;1.40;1.30;;;1.80;99.90;;;;;;5116247;27;20051;-73
2024/01/18 11:47:18;;;;;;;1.40;1.30;;;1.90;99.90;;;;;;5134551;27;20055;-74
2024/01/18 11:49:43;;;;;;;1.40;1.30;;;2.00;99.90;;;;;;5134422;27;20043;-73
2024/01/18 11:52:10;;;;;;;1.35;1.25;;;2.00;99.90;;;;;;5134862;27;20055;-73
2024/01/18 11:54:37;;;;;;;1.42;1.33;;;2.10;99.90;;;;;;5134653;27;20039;-67
2024/01/18 11:57:12;;;;;;;3.38;1.92;;;2.20;99.90;;;;;;5133716;27;20043;-73
2024/01/18 11:59:50;;;;;;;1.50;1.40;;;2.20;99.90;;;;;;5134433;27;20121;-74
2024/01/18 12:02:15;;;;;;;1.30;1.20;;;2.30;99.90;;;;;;5134540;27;20072;-73
2024/01/18 12:04:41;;;;;;;1.38;1.27;;;2.30;99.90;;;;;;5116147;28;20035;-73
2024/01/18 12:07:08;;;;;;;1.40;1.30;;;2.30;99.90;;;;;;5134204;27;20130;-74
2024/01/18 12:09:34;;;;;;;;;;;2.30;99.90;;;;;;5135150;27;20040;-73
2024/01/18 12:12:01;;;;;;;1.40;1.30;;;2.30;99.90;;;;;;5116173;27;20438;-72
2024/01/18 12:14:27;;;;;;;1.50;1.40;;;2.30;99.90;;;;;;5134185;27;20046;-73
2024/01/18 12:16:53;;;;;;;1.30;1.20;;;2.30;99.90;;;;;;5134728;27;20035;-73
2024/01/18 12:19:40;;;;;;;1.40;1.30;;;2.30;99.90;;;;;;5115993;28;20077;-73
2024/01/18 12:22:10;;;;;;;1.40;1.30;;;2.30;99.90;;;;;;5134337;27;20092;-74
2024/01/18 12:24:37;;;;;;;1.35;1.25;;;2.30;99.90;;;;;;5134700;28;20043;-74
2024/01/18 12:27:04;;;;;;;1.40;1.30;;;2.30;99.90;;;;;;5133911;28;20562;-75
2024/01/18 12:29:35;;;;;;;1.38;1.27;;;2.40;99.90;;;;;;5134055;28;20055;-74
2024/01/18 12:32:02;;;;;;;2.97;2.38;;;2.40;99.90;;;;;;5134228;28;20042;-73
2024/01/18 12:34:29;;;;;;;1.40;1.30;;;2.40;99.90;;;;;;5134358;28;20043;-76
2024/01/18 12:36:56;;;;;;;1.38;1.27;;;2.50;99.90;;;;;;5134148;28;20135;-74
2024/01/18 12:39:22;;;;;;;1.40;1.30;;;2.50;99.90;;;;;;5133958;28;20340;-75
2024/01/18 12:41:53;;;;;;;1.30;1.20;;;2.50;99.90;;;;;;5134206;28;20051;-69
2024/01/18 12:44:19;;;;;;;1.33;1.23;;;2.50;99.90;;;;;;5134211;28;20049;-77
2024/01/18 12:46:47;;;;;;;1.60;1.50;;;2.50;99.90;;;;;;5134244;28;20043;-76